Time;durP1;ratioP1;P1;durP2;ratioP2;P2;SDS_P1;SDS_P2;PMS_P1;PMS_P2;Temp;Humidity;BMP_temperature;BMP_pressure;BME280_temperature;BME280_humidity;BME280_pressure;Samples;Min_cycle;Max_cycle;Signal;HPM_P1;HPM_P2
2023/06/14 00:00:19;;;;;;;2.10;1.10;;;18.60;99.90;;;;;;5074496;28;20431;-58
2023/06/14 00:02:47;;;;;;;1.30;1.00;;;18.70;99.90;;;;;;5074700;28;20432;-58
2023/06/14 00:05:14;;;;;;;1.60;1.00;;;18.70;99.90;;;;;;5074970;28;20832;-58
2023/06/14 00:07:43;;;;;;;1.40;1.10;;;18.90;99.90;;;;;;5074264;28;20456;-58
2023/06/14 00:10:11;;;;;;;1.30;1.10;;;18.90;99.90;;;;;;5073873;28;20489;-58
2023/06/14 00:12:39;;;;;;;2.60;1.20;;;18.90;99.90;;;;;;5074812;28;20489;-57
2023/06/14 00:15:09;;;;;;;3.20;1.20;;;18.70;99.90;;;;;;5074254;28;20894;-57
2023/06/14 00:17:36;;;;;;;1.60;1.10;;;18.60;99.90;;;;;;5074284;28;20428;-57
2023/06/14 00:20:07;;;;;;;1.50;1.20;;;18.50;99.90;;;;;;5076781;28;20427;-57
2023/06/14 00:22:36;;;;;;;1.73;1.00;;;18.40;99.90;;;;;;5078090;28;20465;-57
2023/06/14 00:25:06;;;;;;;1.98;1.20;;;18.30;99.90;;;;;;5078231;28;20439;-58
2023/06/14 00:27:33;;;;;;;2.00;1.10;;;18.20;99.90;;;;;;5078571;28;20509;-58
2023/06/14 00:30:00;;;;;;;1.80;1.00;;;18.20;99.90;;;;;;5077706;28;20434;-58
2023/06/14 00:32:27;;;;;;;1.77;1.10;;;18.20;99.90;;;;;;5076932;28;20492;-58
2023/06/14 00:34:54;;;;;;;1.98;1.10;;;18.10;99.90;;;;;;5077935;28;20437;-58
2023/06/14 00:37:21;;;;;;;2.30;1.10;;;18.00;99.90;;;;;;5077582;28;20485;-58
2023/06/14 00:39:48;;;;;;;1.40;1.10;;;18.00;99.90;;;;;;5077765;28;20777;-59
2023/06/14 00:42:26;;;;;;;1.50;1.00;;;17.90;99.90;;;;;;5078003;28;20427;-59
2023/06/14 00:44:53;;;;;;;1.67;1.20;;;17.80;99.90;;;;;;5077865;28;20522;-59
2023/06/14 00:47:21;;;;;;;2.05;1.10;;;17.70;1.00;;;;;;5077670;28;20435;-59
2023/06/14 00:49:50;;;;;;;2.40;1.10;;;17.70;1.00;;;;;;5077175;28;20432;-58
2023/06/14 00:52:18;;;;;;;2.10;1.20;;;17.70;1.00;;;;;;5077784;28;20426;-59
2023/06/14 00:54:45;;;;;;;1.30;1.00;;;17.70;1.00;;;;;;5076995;28;20465;-59
2023/06/14 00:57:13;;;;;;;2.20;1.20;;;17.80;1.00;;;;;;5077797;28;20435;-58
2023/06/14 00:59:45;;;;;;;2.10;1.10;;;17.80;1.00;;;;;;5077079;28;20427;-59
2023/06/14 01:02:14;;;;;;;2.20;1.20;;;17.90;1.00;;;;;;5076823;28;20916;-59
2023/06/14 01:04:45;;;;;;;1.70;1.20;;;18.00;1.00;;;;;;5077037;28;20415;-59
2023/06/14 01:07:23;;;;;;;1.25;1.10;;;18.10;1.00;;;;;;5077381;28;20416;-59
2023/06/14 01:10:03;;;;;;;1.30;1.00;;;18.00;1.00;;;;;;5076981;28;20481;-58
2023/06/14 01:12:36;;;;;;;1.80;1.10;;;17.90;1.00;;;;;;5076397;28;20523;-59
2023/06/14 01:15:07;;;;;;;1.60;1.10;;;17.90;1.00;;;;;;5077049;28;20508;-60
2023/06/14 01:17:36;;;;;;;1.40;1.00;;;17.80;1.00;;;;;;5076938;28;20716;-59
2023/06/14 01:20:09;;;;;;;2.15;1.00;;;17.70;1.00;;;;;;5077077;28;20427;-59
2023/06/14 01:22:37;;;;;;;1.40;1.10;;;17.60;1.00;;;;;;5076839;28;20426;-59
2023/06/14 01:25:06;;;;;;;2.20;1.20;;;17.40;1.00;;;;;;5076979;28;20451;-58
2023/06/14 01:27:33;;;;;;;2.10;1.10;;;17.40;1.00;;;;;;5076654;28;20432;-59
2023/06/14 01:30:02;;;;;;;1.60;1.10;;;17.30;1.00;;;;;;5076395;28;20435;-59
2023/06/14 01:32:30;;;;;;;2.20;1.00;;;17.30;1.00;;;;;;5076895;28;20436;-59
2023/06/14 01:34:57;;;;;;;1.40;1.00;;;17.30;1.00;;;;;;5077173;28;20870;-59
2023/06/14 01:37:25;;;;;;;1.50;1.10;;;17.30;1.00;;;;;;5077257;28;20420;-57
2023/06/14 01:39:52;;;;;;;1.75;1.17;;;17.30;1.00;;;;;;5076730;28;20422;-58
2023/06/14 01:42:21;;;;;;;1.50;1.20;;;17.20;1.00;;;;;;5076820;28;20428;-59
2023/06/14 01:44:49;;;;;;;1.83;1.10;;;17.10;1.00;;;;;;5077135;28;20426;-59
2023/06/14 01:47:16;;;;;;;2.00;1.10;;;17.20;1.00;;;;;;5076752;28;20828;-59
2023/06/14 01:49:43;;;;;;;1.58;1.10;;;17.20;1.00;;;;;;5076676;28;20444;-58
2023/06/14 01:52:10;;;;;;;1.40;1.00;;;17.20;1.00;;;;;;5076721;28;20469;-59
2023/06/14 01:54:41;;;;;;;1.50;1.20;;;17.30;1.00;;;;;;5075807;28;20882;-58
2023/06/14 01:57:10;;;;;;;2.00;1.10;;;17.50;1.00;;;;;;5075626;28;20488;-59
2023/06/14 01:59:38;;;;;;;1.55;1.10;;;17.50;1.00;;;;;;5076485;28;20438;-58
2023/06/14 02:02:06;;;;;;;2.00;1.03;;;17.40;1.00;;;;;;5076434;28;20435;-59
2023/06/14 02:04:33;;;;;;;2.33;1.30;;;17.20;1.00;;;;;;5076499;28;20419;-59
2023/06/14 02:07:00;;;;;;;1.55;1.10;;;17.10;1.00;;;;;;5076574;28;20465;-59
2023/06/14 02:09:27;;;;;;;1.50;1.10;;;17.10;1.00;;;;;;5075917;28;20485;-58
2023/06/14 02:11:54;;;;;;;1.48;1.10;;;17.10;1.00;;;;;;5076086;28;20843;-58
2023/06/14 02:14:21;;;;;;;1.60;1.10;;;17.10;1.00;;;;;;5076085;28;20859;-59
2023/06/14 02:16:49;;;;;;;1.70;1.20;;;17.00;1.00;;;;;;5076884;28;20427;-59
2023/06/14 02:19:17;;;;;;;1.45;1.13;;;16.90;1.00;;;;;;5074900;28;20419;-60
2023/06/14 02:21:44;;;;;;;2.22;1.30;;;16.80;1.00;;;;;;5075133;28;20530;-59
2023/06/14 02:24:11;;;;;;;1.63;1.10;;;16.70;1.00;;;;;;5074912;28;20473;-60
2023/06/14 02:26:38;;;;;;;1.88;1.20;;;16.70;1.00;;;;;;5075067;28;20496;-58
2023/06/14 02:29:08;;;;;;;2.28;1.10;;;16.50;1.00;;;;;;5074075;28;20459;-57
2023/06/14 02:31:36;;;;;;;1.70;1.02;;;16.40;1.00;;;;;;5073432;28;20476;-57
2023/06/14 02:34:04;;;;;;;1.50;1.10;;;16.40;1.00;;;;;;5074901;28;20443;-57
2023/06/14 02:36:31;;;;;;;1.80;1.20;;;16.40;1.00;;;;;;5075558;28;20497;-57
2023/06/14 02:38:58;;;;;;;1.42;1.20;;;16.40;1.00;;;;;;5075323;28;20517;-58
2023/06/14 02:41:25;;;;;;;1.60;1.10;;;16.40;1.00;;;;;;5075055;28;20864;-59
2023/06/14 02:43:52;;;;;;;2.30;1.00;;;16.40;1.00;;;;;;5075199;28;20458;-59
2023/06/14 02:46:20;;;;;;;2.00;1.17;;;16.40;1.00;;;;;;5074919;28;20420;-58
2023/06/14 02:48:46;;;;;;;1.38;1.10;;;16.50;1.00;;;;;;5074534;28;20431;-59
2023/06/14 02:51:15;;;;;;;1.70;1.10;;;16.40;1.00;;;;;;5075150;28;20481;-57
2023/06/14 02:53:42;;;;;;;1.48;1.20;;;16.40;1.00;;;;;;5075162;28;20773;-58
2023/06/14 02:56:11;;;;;;;2.63;1.23;;;16.20;1.00;;;;;;5075303;28;20435;-58
2023/06/14 02:58:39;;;;;;;2.03;1.13;;;16.20;1.00;;;;;;5073124;28;20423;-58
2023/06/14 03:01:07;;;;;;;2.50;1.15;;;16.00;1.00;;;;;;5073586;28;20424;-58
2023/06/14 03:03:35;;;;;;;3.30;1.00;;;16.00;1.00;;;;;;5073450;28;20878;-58
2023/06/14 03:06:04;;;;;;;2.05;1.30;;;16.10;1.00;;;;;;5073770;28;20424;-59
2023/06/14 03:08:38;;;;;;;2.50;1.30;;;16.20;1.00;;;;;;5073098;28;20653;-58
2023/06/14 03:11:06;;;;;;;2.00;1.30;;;16.30;1.00;;;;;;5072650;28;20763;-57
2023/06/14 03:13:33;;;;;;;1.40;1.20;;;16.30;1.00;;;;;;5074320;28;20866;-58
2023/06/14 03:16:02;;;;;;;2.63;1.20;;;16.30;1.00;;;;;;5074501;28;20782;-58
2023/06/14 03:18:30;;;;;;;2.60;1.20;;;16.20;1.00;;;;;;5075270;28;20454;-57
2023/06/14 03:20:57;;;;;;;1.57;1.10;;;16.20;1.00;;;;;;5073281;28;20428;-58
2023/06/14 03:23:25;;;;;;;2.00;1.20;;;16.00;1.00;;;;;;5073521;28;20704;-58
2023/06/14 03:25:53;;;;;;;1.98;1.20;;;15.90;1.00;;;;;;5072045;28;20594;-58
2023/06/14 03:28:20;;;;;;;3.05;1.10;;;15.80;1.00;;;;;;5073360;28;20783;-56
2023/06/14 03:30:48;;;;;;;1.43;1.10;;;15.60;1.00;;;;;;5073343;28;20526;-57
2023/06/14 03:33:15;;;;;;;2.10;1.10;;;15.50;1.00;;;;;;5072827;28;20458;-58
2023/06/14 03:35:42;;;;;;;1.88;1.10;;;15.50;1.00;;;;;;5074325;28;20432;-59
2023/06/14 03:38:09;;;;;;;2.40;1.10;;;15.50;1.00;;;;;;5074890;28;20424;-59
2023/06/14 03:40:36;;;;;;;1.60;1.30;;;15.60;1.00;;;;;;5074390;28;20444;-59
2023/06/14 03:43:04;;;;;;;2.47;1.20;;;15.50;1.00;;;;;;5073908;28;20447;-59
2023/06/14 03:45:31;;;;;;;1.77;1.10;;;15.50;1.00;;;;;;5073397;28;20427;-50
2023/06/14 03:48:00;;;;;;;1.50;1.20;;;15.50;1.00;;;;;;5075105;28;20420;-54
2023/06/14 03:50:28;;;;;;;1.90;1.10;;;15.40;1.00;;;;;;5074279;28;20792;-54
2023/06/14 03:52:54;;;;;;;1.55;1.10;;;15.40;1.00;;;;;;5073337;28;20415;-55
2023/06/14 03:55:25;;;;;;;2.60;1.20;;;15.40;1.00;;;;;;5076492;28;20432;-52
2023/06/14 03:57:51;;;;;;;3.25;1.10;;;15.40;1.00;;;;;;5076924;28;20478;-54
2023/06/14 04:00:20;;;;;;;1.90;1.25;;;15.50;1.00;;;;;;5077287;28;20866;-54
2023/06/14 04:02:47;;;;;;;1.93;1.10;;;15.50;1.00;;;;;;5074648;28;20414;-54
2023/06/14 04:05:16;;;;;;;2.22;1.20;;;15.60;1.00;;;;;;5076128;28;20713;-55
2023/06/14 04:07:44;;;;;;;1.83;1.10;;;15.60;1.00;;;;;;5076150;28;20451;-53
2023/06/14 04:10:13;;;;;;;1.75;1.00;;;15.60;1.00;;;;;;5075830;28;20438;-55
2023/06/14 04:12:40;;;;;;;1.92;1.30;;;15.50;1.00;;;;;;5075973;28;20431;-51
2023/06/14 04:15:08;;;;;;;1.98;1.20;;;15.50;1.00;;;;;;5074737;28;20485;-53
2023/06/14 04:17:37;;;;;;;1.75;1.02;;;15.60;1.00;;;;;;5076968;28;20790;-55
2023/06/14 04:20:09;;;;;;;2.13;1.10;;;15.60;1.00;;;;;;5077494;28;20415;-52
2023/06/14 04:22:36;;;;;;;2.90;1.20;;;15.70;1.00;;;;;;5078132;28;20914;-54
2023/06/14 04:25:06;;;;;;;2.50;1.10;;;15.70;1.00;;;;;;5077265;28;20469;-53
2023/06/14 04:27:35;;;;;;;1.90;1.10;;;15.80;1.00;;;;;;5076526;28;20847;-54
2023/06/14 04:30:03;;;;;;;3.80;1.20;;;15.80;1.00;;;;;;5076642;28;20431;-55
2023/06/14 04:32:33;;;;;;;2.47;1.20;;;15.90;1.00;;;;;;5076957;28;20427;-51
2023/06/14 04:35:03;;;;;;;2.35;1.30;;;15.80;1.00;;;;;;5076375;28;20481;-55
2023/06/14 04:37:30;;;;;;;1.75;1.10;;;15.70;1.00;;;;;;5076841;28;20712;-52
2023/06/14 04:39:57;;;;;;;3.10;1.20;;;15.70;1.00;;;;;;5076063;28;20774;-50
2023/06/14 04:42:30;;;;;;;2.20;1.10;;;15.70;1.00;;;;;;5075993;28;20432;-52
2023/06/14 04:44:58;;;;;;;2.75;1.40;;;15.80;1.00;;;;;;5076319;28;20465;-53
2023/06/14 04:47:29;;;;;;;3.35;1.30;;;15.80;1.00;;;;;;5075310;28;20499;-52
2023/06/14 04:49:57;;;;;;;2.20;1.40;;;15.90;1.00;;;;;;5074906;28;20438;-50
2023/06/14 04:52:26;;;;;;;3.30;1.40;;;16.00;1.00;;;;;;5075162;28;20427;-53
2023/06/14 04:54:54;;;;;;;1.55;1.33;;;16.10;1.00;;;;;;5076640;28;20859;-55
2023/06/14 04:57:22;;;;;;;2.35;1.30;;;16.20;1.00;;;;;;5075638;28;20510;-50
2023/06/14 04:59:54;;;;;;;1.70;1.20;;;16.20;1.00;;;;;;5073737;28;20823;-54
2023/06/14 05:02:23;;;;;;;2.83;1.60;;;16.20;1.00;;;;;;5075050;28;20419;-49
2023/06/14 05:04:50;;;;;;;1.60;1.30;;;16.30;1.00;;;;;;5075074;28;20790;-50
2023/06/14 05:07:17;;;;;;;1.70;1.20;;;16.40;1.00;;;;;;5074838;28;20428;-50
2023/06/14 05:09:46;;;;;;;2.60;1.20;;;16.50;1.00;;;;;;5072623;28;20428;-54
2023/06/14 05:12:13;;;;;;;2.40;1.20;;;16.60;1.00;;;;;;5072364;28;20431;-54
2023/06/14 05:14:40;;;;;;;1.70;1.20;;;16.70;1.00;;;;;;5072550;28;20914;-54
2023/06/14 05:17:07;;;;;;;1.40;1.13;;;16.80;1.00;;;;;;5071129;28;20426;-54
2023/06/14 05:19:34;;;;;;;2.20;1.50;;;16.90;1.00;;;;;;5072865;28;20427;-54
2023/06/14 05:22:02;;;;;;;2.42;1.40;;;16.90;1.00;;;;;;5074806;28;20431;-53
2023/06/14 05:24:30;;;;;;;1.50;1.40;;;17.00;1.00;;;;;;5074732;28;20431;-55
2023/06/14 05:26:58;;;;;;;2.40;1.17;;;17.00;1.00;;;;;;5073297;28;20550;-51
2023/06/14 05:29:25;;;;;;;2.00;1.40;;;17.00;1.00;;;;;;5072707;28;20885;-54
2023/06/14 05:31:52;;;;;;;1.90;1.40;;;16.90;1.00;;;;;;5072987;28;20439;-51
2023/06/14 05:34:20;;;;;;;5.72;2.63;;;17.00;1.00;;;;;;5071206;28;20489;-53
2023/06/14 05:36:47;;;;;;;2.35;1.40;;;17.30;1.00;;;;;;5074362;28;20446;-52
2023/06/14 05:39:14;;;;;;;2.67;1.20;;;17.50;1.00;;;;;;5074733;28;20423;-51
2023/06/14 05:41:41;;;;;;;2.00;1.30;;;17.70;1.00;;;;;;5074696;28;20427;-54
2023/06/14 05:44:10;;;;;;;1.40;1.20;;;17.60;1.00;;;;;;5071668;28;20422;-53
2023/06/14 05:46:39;;;;;;;2.40;1.30;;;17.60;1.00;;;;;;5072385;28;20431;-55
2023/06/14 05:49:06;;;;;;;1.90;1.40;;;17.50;1.00;;;;;;5069912;28;20431;-55
2023/06/14 05:51:34;;;;;;;1.58;1.20;;;17.40;1.00;;;;;;5059969;28;20429;-54
2023/06/14 05:54:01;;;;;;;1.40;1.00;;;17.50;1.00;;;;;;5070485;28;20455;-53
2023/06/14 05:56:28;;;;;;;1.45;1.10;;;17.80;1.00;;;;;;5073386;28;20530;-55
2023/06/14 05:58:55;;;;;;;2.30;1.20;;;18.10;1.00;;;;;;5071921;28;20905;-55
2023/06/14 06:01:23;;;;;;;2.15;1.30;;;18.30;1.00;;;;;;5072847;28;20485;-53
2023/06/14 06:03:50;;;;;;;2.77;1.20;;;18.40;1.00;;;;;;5073373;28;20435;-52
2023/06/14 06:06:17;;;;;;;1.58;1.20;;;18.40;1.00;;;;;;5073309;28;20432;-51
2023/06/14 06:08:44;;;;;;;2.60;1.20;;;18.20;1.00;;;;;;5071952;28;20450;-54
2023/06/14 06:11:11;;;;;;;1.95;1.30;;;18.40;1.00;;;;;;5071158;28;20799;-56
2023/06/14 06:13:40;;;;;;;2.47;1.30;;;18.50;1.00;;;;;;5071089;28;20523;-52
2023/06/14 06:16:07;;;;;;;1.87;1.20;;;18.40;1.00;;;;;;5069536;28;20443;-56
2023/06/14 06:18:36;;;;;;;2.47;1.20;;;18.40;1.00;;;;;;5084154;28;20442;-53
2023/06/14 06:21:04;;;;;;;1.60;1.30;;;18.60;1.00;;;;;;5089125;28;20529;-54
2023/06/14 06:23:31;;;;;;;1.70;1.30;;;18.70;1.00;;;;;;5088424;28;20421;-56
2023/06/14 06:25:58;;;;;;;3.22;1.30;;;18.70;1.00;;;;;;5089425;28;20471;-55
2023/06/14 06:28:25;;;;;;;2.53;1.20;;;18.80;1.00;;;;;;5087386;28;20445;-55
2023/06/14 06:30:53;;;;;;;2.00;1.20;;;19.00;1.00;;;;;;5089887;28;20434;-54
2023/06/14 06:33:20;;;;;;;1.77;1.50;;;19.00;1.00;;;;;;5069856;28;20472;-54
2023/06/14 06:35:48;;;;;;;2.07;1.20;;;19.00;1.00;;;;;;5072566;28;21049;-54
2023/06/14 06:38:15;;;;;;;1.60;1.20;;;19.10;1.00;;;;;;5084354;28;20857;-54
2023/06/14 06:40:42;;;;;;;2.90;1.20;;;19.30;1.00;;;;;;5089166;28;20441;-58
2023/06/14 06:43:09;;;;;;;2.65;1.30;;;19.40;1.00;;;;;;5089744;28;20858;-54
2023/06/14 06:45:36;;;;;;;2.38;1.40;;;19.50;1.00;;;;;;5085198;28;20428;-56
2023/06/14 06:48:03;;;;;;;1.77;1.10;;;19.40;1.00;;;;;;5053854;28;20490;-52
2023/06/14 06:50:30;;;;;;;1.95;1.40;;;19.50;1.00;;;;;;5062042;28;20485;-53
2023/06/14 06:52:59;;;;;;;2.60;1.60;;;19.70;1.00;;;;;;5070484;28;20481;-54
2023/06/14 06:55:26;;;;;;;1.90;1.20;;;19.60;1.00;;;;;;5090108;28;20941;-54
2023/06/14 06:57:53;;;;;;;2.80;1.10;;;19.60;1.00;;;;;;5092293;28;20781;-52
2023/06/14 07:00:21;;;;;;;1.80;1.10;;;19.80;1.00;;;;;;5090599;28;20434;-54
2023/06/14 07:02:48;;;;;;;2.20;1.20;;;19.90;1.00;;;;;;5089482;28;20453;-55
2023/06/14 07:05:15;;;;;;;1.58;1.20;;;20.00;1.00;;;;;;5090289;28;20837;-54
2023/06/14 07:07:42;;;;;;;2.53;1.20;;;20.20;1.00;;;;;;5091085;28;20662;-55
2023/06/14 07:10:10;;;;;;;2.20;1.60;;;20.10;1.00;;;;;;5088325;28;20622;-54
2023/06/14 07:12:39;;;;;;;1.80;1.20;;;20.30;1.00;;;;;;5087382;28;20580;-54
2023/06/14 07:15:08;;;;;;;3.00;1.50;;;20.40;1.00;;;;;;5090330;28;20429;-55
2023/06/14 07:17:35;;;;;;;3.33;1.23;;;20.50;1.00;;;;;;5089886;28;20421;-55
2023/06/14 07:20:11;;;;;;;2.30;1.30;;;20.40;1.00;;;;;;5076824;28;20435;-55
2023/06/14 07:22:40;;;;;;;2.80;1.30;;;20.40;1.00;;;;;;5071130;28;20827;-54
2023/06/14 07:25:08;;;;;;;1.60;1.13;;;20.50;1.00;;;;;;5086772;28;20437;-57
2023/06/14 07:27:36;;;;;;;1.40;1.20;;;20.50;1.00;;;;;;5090291;28;20818;-55
2023/06/14 07:30:04;;;;;;;1.70;1.10;;;20.50;1.00;;;;;;5086071;28;20433;-53
2023/06/14 07:32:31;;;;;;;2.10;1.30;;;20.60;1.00;;;;;;5089747;28;20471;-53
2023/06/14 07:34:58;;;;;;;1.58;1.10;;;20.70;1.00;;;;;;5088557;28;20451;-55
2023/06/14 07:37:25;;;;;;;1.40;1.10;;;20.80;1.00;;;;;;5089405;28;20465;-55
2023/06/14 07:39:52;;;;;;;1.42;1.30;;;20.90;1.00;;;;;;5088552;28;20526;-53
2023/06/14 07:42:19;;;;;;;2.45;1.20;;;21.10;1.00;;;;;;5077186;28;20439;-54
2023/06/14 07:44:47;;;;;;;1.30;1.10;;;21.00;1.00;;;;;;5082246;28;20433;-54
2023/06/14 07:47:14;;;;;;;1.80;1.20;;;21.00;1.00;;;;;;5089639;28;20680;-55
2023/06/14 07:49:41;;;;;;;1.50;1.10;;;20.90;1.00;;;;;;5088978;28;20430;-56
2023/06/14 07:52:08;;;;;;;2.00;1.27;;;20.70;1.00;;;;;;5089720;28;20436;-58
2023/06/14 07:54:35;;;;;;;1.80;1.13;;;20.80;1.00;;;;;;5085888;28;20838;-56
2023/06/14 07:57:03;;;;;;;3.40;1.20;;;20.80;1.00;;;;;;5088158;28;20444;-56
2023/06/14 07:59:30;;;;;;;1.50;1.17;;;20.90;1.00;;;;;;5087314;28;20430;-54
2023/06/14 08:01:58;;;;;;;1.30;1.00;;;21.10;1.00;;;;;;5087673;28;20418;-55
2023/06/14 08:04:25;;;;;;;1.73;1.50;;;21.20;1.00;;;;;;5088828;28;20422;-56
2023/06/14 08:06:52;;;;;;;1.65;1.10;;;21.30;1.00;;;;;;5084261;28;20476;-55
2023/06/14 08:09:20;;;;;;;1.40;1.10;;;21.40;1.00;;;;;;5084799;28;20524;-52
2023/06/14 08:11:47;;;;;;;2.05;1.30;;;21.50;1.00;;;;;;5088121;28;20483;-57
2023/06/14 08:14:14;;;;;;;1.55;1.10;;;21.50;1.00;;;;;;5082818;28;20438;-55
2023/06/14 08:16:41;;;;;;;1.50;1.30;;;21.50;1.00;;;;;;5089916;28;20503;-55
2023/06/14 08:19:10;;;;;;;1.50;1.15;;;21.60;1.00;;;;;;5088570;28;20506;-56
2023/06/14 08:21:37;;;;;;;2.30;1.20;;;21.80;1.00;;;;;;5083852;28;21006;-55
2023/06/14 08:24:04;;;;;;;1.60;1.33;;;21.80;1.00;;;;;;5069859;28;20504;-56
2023/06/14 08:26:31;;;;;;;1.88;1.20;;;22.00;1.00;;;;;;5071744;28;20426;-56
2023/06/14 08:28:59;;;;;;;1.67;1.10;;;22.00;1.00;;;;;;5076216;28;20570;-54
2023/06/14 08:31:27;;;;;;;1.50;1.10;;;22.10;1.00;;;;;;5086778;28;20426;-53
2023/06/14 08:33:54;;;;;;;2.00;1.30;;;22.20;1.00;;;;;;5083392;28;20541;-56
2023/06/14 08:36:23;;;;;;;2.00;1.20;;;22.10;1.00;;;;;;5074736;28;21176;-56
2023/06/14 08:38:50;;;;;;;1.70;1.20;;;22.20;1.00;;;;;;5069660;28;21123;-57
2023/06/14 08:41:23;;;;;;;1.70;1.20;;;22.30;1.00;;;;;;5075149;28;20430;-55
2023/06/14 08:43:50;;;;;;;2.80;1.70;;;22.20;1.00;;;;;;5093235;28;20421;-56
2023/06/14 08:46:22;;;;;;;2.20;1.30;;;22.30;1.00;;;;;;5073059;28;20493;-56
2023/06/14 08:48:50;;;;;;;2.75;1.20;;;22.40;1.00;;;;;;5071867;28;20467;-56
2023/06/14 08:51:21;;;;;;;1.80;1.30;;;22.40;1.00;;;;;;5077758;28;20438;-53
2023/06/14 08:53:57;;;;;;;1.40;1.20;;;22.30;1.00;;;;;;5083754;28;20435;-55
2023/06/14 08:56:26;;;;;;;1.70;1.10;;;22.50;1.00;;;;;;5083181;28;20718;-56
2023/06/14 08:58:53;;;;;;;3.60;1.30;;;22.60;1.00;;;;;;5071941;28;20429;-54
2023/06/14 09:01:21;;;;;;;1.90;1.30;;;22.70;1.00;;;;;;5075465;28;20438;-55
2023/06/14 09:03:50;;;;;;;1.80;1.20;;;22.80;1.00;;;;;;5072900;28;20526;-57
2023/06/14 09:06:18;;;;;;;1.50;1.20;;;22.80;1.00;;;;;;5076224;28;20913;-55
2023/06/14 09:08:47;;;;;;;1.73;1.30;;;22.70;1.00;;;;;;5071543;28;20435;-56
2023/06/14 09:11:18;;;;;;;2.10;1.30;;;22.60;1.00;;;;;;5073700;28;20734;-56
2023/06/14 09:13:46;;;;;;;1.98;1.20;;;22.70;1.00;;;;;;5072853;28;20890;-54
2023/06/14 09:16:13;;;;;;;1.40;1.30;;;22.90;1.00;;;;;;5074317;28;20434;-53
2023/06/14 09:18:41;;;;;;;1.40;1.10;;;23.20;1.00;;;;;;5077885;28;20439;-55
2023/06/14 09:21:08;;;;;;;2.10;1.23;;;23.50;1.00;;;;;;5074592;28;20465;-54
2023/06/14 09:23:38;;;;;;;3.70;1.40;;;23.70;1.00;;;;;;5068780;28;21053;-52
2023/06/14 09:26:09;;;;;;;3.00;1.40;;;23.70;1.00;;;;;;5076691;28;21130;-57
2023/06/14 09:28:42;;;;;;;2.08;1.20;;;23.70;1.00;;;;;;5074492;28;20866;-57
2023/06/14 09:31:11;;;;;;;1.90;1.30;;;23.50;1.00;;;;;;5071719;28;20538;-54
2023/06/14 09:33:38;;;;;;;3.03;1.20;;;23.60;1.00;;;;;;5079688;28;20534;-57
2023/06/14 09:36:05;;;;;;;1.70;1.10;;;23.80;1.00;;;;;;5085915;28;20431;-56
2023/06/14 09:38:35;;;;;;;2.30;1.20;;;24.00;1.00;;;;;;5082775;28;20436;-53
2023/06/14 09:41:05;;;;;;;1.92;1.20;;;24.00;1.00;;;;;;5065747;28;20428;-53
2023/06/14 09:43:33;;;;;;;1.52;1.10;;;23.70;1.00;;;;;;5068941;28;20449;-55
2023/06/14 09:46:03;;;;;;;1.75;1.30;;;23.80;1.00;;;;;;5077152;28;20853;-55
2023/06/14 09:48:30;;;;;;;1.40;1.20;;;24.00;1.00;;;;;;5062853;28;20460;-56
2023/06/14 09:50:59;;;;;;;1.50;1.00;;;24.10;1.00;;;;;;5070314;28;20435;-56
2023/06/14 09:53:29;;;;;;;1.42;1.10;;;24.20;1.00;;;;;;5076671;28;20464;-55
2023/06/14 09:55:58;;;;;;;3.20;1.20;;;24.30;1.00;;;;;;5088937;28;20437;-56
2023/06/14 09:58:29;;;;;;;1.75;1.30;;;24.30;1.00;;;;;;5094008;28;20449;-54
2023/06/14 10:00:56;;;;;;;1.50;1.10;;;24.30;1.00;;;;;;5090386;28;20425;-53
2023/06/14 10:03:29;;;;;;;2.97;1.20;;;24.70;1.00;;;;;;5074113;28;20439;-55
2023/06/14 10:06:00;;;;;;;1.80;1.10;;;24.90;1.00;;;;;;5069134;28;20463;-54
2023/06/14 10:08:33;;;;;;;3.13;1.20;;;25.20;1.00;;;;;;5071501;28;20848;-55
2023/06/14 10:11:00;;;;;;;1.40;1.10;;;25.50;1.00;;;;;;5070485;28;20510;-54
2023/06/14 10:13:30;;;;;;;2.60;1.20;;;25.60;1.00;;;;;;5071172;28;20439;-55
2023/06/14 10:16:05;;;;;;;1.88;1.17;;;25.50;1.00;;;;;;5067905;28;20925;-55
2023/06/14 10:18:41;;;;;;;2.08;1.30;;;25.70;1.00;;;;;;5069786;28;20423;-54
2023/06/14 10:21:20;;;;;;;1.50;1.02;;;26.00;1.00;;;;;;5069831;28;21152;-53
2023/06/14 10:23:48;;;;;;;1.30;1.10;;;26.20;1.00;;;;;;5068795;28;20443;-55
2023/06/14 10:26:25;;;;;;;2.40;1.20;;;26.60;1.00;;;;;;5072442;28;20915;-54
2023/06/14 10:28:59;;;;;;;1.40;1.00;;;26.70;1.00;;;;;;5068028;28;20887;-54
2023/06/14 10:31:42;;;;;;;1.60;1.10;;;26.80;1.00;;;;;;5069476;28;21076;-55
2023/06/14 10:34:11;;;;;;;2.10;1.20;;;26.30;1.00;;;;;;5073854;28;20451;-51
2023/06/14 10:36:44;;;;;;;2.47;1.10;;;26.10;1.00;;;;;;5073749;28;20460;-56
2023/06/14 10:39:16;;;;;;;1.80;1.10;;;25.70;1.00;;;;;;5074625;28;20462;-55
2023/06/14 10:41:52;;;;;;;1.80;1.10;;;25.50;1.00;;;;;;5072751;28;20439;-54
2023/06/14 10:44:47;;;;;;;2.00;1.20;;;25.40;1.00;;;;;;5070520;28;20442;-53
2023/06/14 10:47:28;;;;;;;1.95;1.10;;;26.10;1.00;;;;;;5071582;28;20809;-56
2023/06/14 10:50:03;;;;;;;2.70;1.20;;;26.60;1.00;;;;;;5071001;28;20428;-55
2023/06/14 10:52:35;;;;;;;1.67;1.20;;;27.00;1.00;;;;;;5071799;28;20435;-57
2023/06/14 10:55:12;;;;;;;2.30;1.10;;;27.40;1.00;;;;;;5070626;28;20434;-50
2023/06/14 10:57:40;;;;;;;3.40;1.20;;;27.50;1.00;;;;;;5066583;28;21030;-54
2023/06/14 11:00:22;;;;;;;2.40;1.40;;;27.70;1.00;;;;;;5059313;28;20554;-54
2023/06/14 11:03:32;;;;;;;20.73;18.38;;;27.40;1.00;;;;;;5068446;28;20439;-55
2023/06/14 11:06:00;;;;;;;1.90;1.20;;;27.80;1.00;;;;;;5048742;28;20857;-55
2023/06/14 11:09:09;;;;;;;1.30;1.10;;;27.90;1.00;;;;;;5064167;28;20433;-57
2023/06/14 11:11:38;;;;;;;1.40;1.10;;;28.20;1.00;;;;;;5071187;28;20938;-57
2023/06/14 11:14:05;;;;;;;1.20;0.90;;;28.70;1.00;;;;;;5085223;28;20418;-57
2023/06/14 11:16:33;;;;;;;1.73;1.00;;;29.00;1.00;;;;;;5080816;28;20442;-56
2023/06/14 11:19:03;;;;;;;1.20;1.00;;;28.40;1.00;;;;;;5090793;28;20430;-58
2023/06/14 11:21:33;;;;;;;1.10;0.90;;;28.50;1.00;;;;;;5090029;28;20428;-56
2023/06/14 11:24:00;;;;;;;1.55;1.00;;;28.90;1.00;;;;;;5070842;28;20497;-58
2023/06/14 11:26:28;;;;;;;1.80;1.10;;;28.80;1.00;;;;;;5070049;28;20423;-59
2023/06/14 11:29:00;;;;;;;2.17;0.90;;;29.20;1.00;;;;;;5077013;28;20860;-58
2023/06/14 11:31:28;;;;;;;1.20;0.95;;;29.20;99.90;;;;;;5071821;28;20423;-58
2023/06/14 11:33:56;;;;;;;1.10;0.90;;;28.80;99.90;;;;;;5076385;28;20435;-57
2023/06/14 11:36:23;;;;;;;1.20;1.00;;;29.00;99.90;;;;;;5071953;28;20471;-58
2023/06/14 11:39:00;;;;;;;2.00;0.90;;;29.10;99.90;;;;;;5069397;28;20432;-58
2023/06/14 11:41:27;;;;;;;2.70;0.90;;;28.50;99.90;;;;;;5070799;28;20735;-58
2023/06/14 11:43:54;;;;;;;1.70;0.90;;;28.60;99.90;;;;;;5071062;28;20516;-58
2023/06/14 11:46:24;;;;;;;27.30;4.00;;;28.80;99.90;;;;;;5071070;28;20437;-57
2023/06/14 11:48:54;;;;;;;5.00;1.40;;;29.10;99.90;;;;;;5070617;28;20436;-58
2023/06/14 11:51:21;;;;;;;1.58;1.00;;;29.00;99.90;;;;;;5069113;28;20802;-58
2023/06/14 11:53:48;;;;;;;1.70;1.00;;;28.70;99.90;;;;;;5072600;28;20944;-57
2023/06/14 11:56:17;;;;;;;2.00;0.90;;;28.60;99.90;;;;;;5073662;28;20857;-58
2023/06/14 11:58:44;;;;;;;1.50;0.90;;;28.20;99.90;;;;;;5072081;28;20494;-57
2023/06/14 12:01:17;;;;;;;1.15;1.00;;;28.50;99.90;;;;;;5072168;28;20439;-57
2023/06/14 12:03:49;;;;;;;1.10;0.90;;;28.50;99.90;;;;;;5068695;28;20791;-56
2023/06/14 12:06:17;;;;;;;1.52;0.90;;;28.20;99.90;;;;;;5061648;28;20873;-57
2023/06/14 12:08:45;;;;;;;0.93;0.80;;;27.60;99.90;;;;;;5070543;28;20528;-56
2023/06/14 12:11:13;;;;;;;1.30;0.90;;;27.20;99.90;;;;;;5068344;28;20622;-56
2023/06/14 12:13:41;;;;;;;2.40;1.00;;;26.80;99.90;;;;;;5075907;28;20522;-55
2023/06/14 12:16:09;;;;;;;1.30;1.00;;;26.70;99.90;;;;;;5092671;28;20992;-55
2023/06/14 12:18:37;;;;;;;2.20;1.00;;;26.50;99.90;;;;;;5085598;28;20826;-55
2023/06/14 12:21:06;;;;;;;1.20;1.02;;;26.90;99.90;;;;;;5076280;28;20425;-57
2023/06/14 12:23:47;;;;;;;1.20;0.98;;;27.50;99.90;;;;;;5093642;28;20414;-57
2023/06/14 12:26:16;;;;;;;1.50;1.00;;;28.20;99.90;;;;;;5093764;28;20485;-57
2023/06/14 12:28:46;;;;;;;1.10;0.90;;;28.40;99.90;;;;;;5081096;28;20437;-58
2023/06/14 12:31:15;;;;;;;1.10;0.80;;;28.40;99.90;;;;;;5073339;28;20477;-57
2023/06/14 12:33:42;;;;;;;1.10;0.80;;;28.20;99.90;;;;;;5071095;28;21072;-58
2023/06/14 12:36:10;;;;;;;1.15;0.90;;;28.70;99.90;;;;;;5073494;28;20843;-57
2023/06/14 12:38:38;;;;;;;1.10;0.80;;;29.00;99.90;;;;;;5073988;28;20427;-57
2023/06/14 12:41:05;;;;;;;1.48;0.90;;;29.20;99.90;;;;;;5071945;28;20506;-58
2023/06/14 12:43:32;;;;;;;1.30;1.00;;;28.80;99.90;;;;;;5073082;28;20438;-56
2023/06/14 12:46:01;;;;;;;1.20;0.90;;;27.90;99.90;;;;;;5073636;28;20477;-57
2023/06/14 12:48:29;;;;;;;1.50;1.00;;;28.00;99.90;;;;;;5072791;28;20808;-59
2023/06/14 12:50:56;;;;;;;2.70;0.90;;;28.50;99.90;;;;;;5071910;28;20428;-56
2023/06/14 12:53:23;;;;;;;2.10;0.90;;;28.80;99.90;;;;;;5073832;28;20480;-57
2023/06/14 12:55:51;;;;;;;1.20;0.90;;;29.10;99.90;;;;;;5073563;28;20815;-57
2023/06/14 12:58:19;;;;;;;1.30;0.90;;;29.30;99.90;;;;;;5075425;28;20435;-57
2023/06/14 13:00:46;;;;;;;1.27;0.90;;;29.50;99.90;;;;;;5073978;28;20430;-57
2023/06/14 13:03:15;;;;;;;1.00;0.90;;;29.10;99.90;;;;;;5072462;28;20435;-57